Data for 10/17/2008

Time Sea-Level Adjusted Pressure Absolute Pressure Temperature Relative Humidity Dew Point   
(mb) (inHg) (mb) (inHg) (C) (F) (%) (C) (F)
00:05 1026 30.3 855 25.25 6.1 43 67 0.5 32.9
00:10 1026 30.3 855 25.25 5.8 42.5 69 0.6 33
00:15 1026 30.3 855 25.25 5.6 42.1 70 0.7 33.2
00:20 1026 30.3 855 25.25 5.3 41.5 71 0.5 32.9
00:25 1026 30.3 855 25.25 5.1 41.1 71 0.3 32.6
00:30 1026 30.3 855 25.25 5.3 41.5 70 0.3 32.6
00:35 1026 30.3 856 25.28 5.8 42.5 67 0.3 32.5
00:40 1026 30.3 856 25.28 6 42.7 68 0.5 32.9
00:45 1026 30.3 855 25.25 5.9 42.7 67 0.4 32.7
00:50 1026 30.3 855 25.25 5.7 42.3 68 0.3 32.6
00:55 1026 30.3 855 25.25 5.4 41.7 70 0.3 32.5
01:00 1026 30.3 855 25.25 5 41.1 72 0.4 32.7
01:05 1026 30.3 855 25.25 4.9 40.8 72 0.2 32.4
01:10 1026 30.3 855 25.25 4.9 40.8 71 0 32
01:15 1026 30.3 855 25.25 5.1 41.3 70 0 32.1
01:20 1026 30.3 855 25.25 5.2 41.4 69 0.1 32.1
01:25 1026 30.3 855 25.25 5.1 41.1 71 0.2 32.3
01:30 1026 30.3 855 25.25 4.7 40.5 72 0 32
01:35 1026 30.3 855 25.25 4.6 40.3 72 -0.1 31.9
01:40 1026 30.3 855 25.25 4.7 40.5 71 -0.1 31.9
01:45 1026 30.3 855 25.25 4.8 40.7 70 -0.1 31.8
01:50 1026 30.3 855 25.25 5.2 41.4 68 -0.2 31.6
01:55 1026 30.3 855 25.25 5.5 42 66 -0.2 31.6
02:00 1026 30.3 855 25.25 5.8 42.5 65 -0.1 31.7
02:05 1026 30.3 855 25.25 5.6 42.1 67 0 32.1
02:10 1026 30.3 855 25.25 5.4 41.7 67 -0.2 31.6
02:15 1026 30.3 855 25.25 5.6 42.1 66 -0.2 31.6
02:20 1026 30.3 855 25.25 5.5 41.9 67 -0 31.9
02:25 1026 30.3 855 25.25 5.1 41.2 69 -0.1 31.8
02:30 1026 30.3 855 25.25 4.8 40.6 70 -0.2 31.6
02:35 1026 30.3 855 25.25 4.7 40.5 70 -0.3 31.5
02:40 1026 30.3 855 25.25 4.7 40.5 70 -0.2 31.6
02:45 1026 30.3 855 25.25 4.8 40.7 69 -0.4 31.4
02:50 1026 30.3 855 25.25 5.3 41.5 67 -0.4 31.3
02:55 1026 30.3 855 25.25 5.5 41.8 66 -0.5 31.2
03:00 1026 30.3 855 25.25 5.6 42.1 65 -0.4 31.4
03:05 1026 30.3 855 25.25 5.3 41.5 68 -0.2 31.6
03:10 1026 30.3 855 25.25 5.2 41.3 67 -0.4 31.3
03:15 1026 30.3 855 25.25 5.3 41.5 68 -0.2 31.7
03:20 1026 30.3 855 25.25 5.1 41.2 70 0.1 32.1
03:25 1026 30.3 855 25.25 4.5 40.2 72 -0.1 31.9
03:30 1026 30.3 855 25.25 4.5 40 72 -0.2 31.6
03:35 1026 30.3 855 25.25 4.4 39.9 72 -0.2 31.7
03:40 1026 30.3 855 25.25 4.5 40 71 -0.3 31.4
03:45 1026 30.3 855 25.25 4.4 39.8 72 -0.3 31.5
03:50 1026 30.3 855 25.25 4.7 40.4 69 -0.5 31.1
03:55 1026 30.3 855 25.25 5 41 68 -0.3 31.4
04:00 1026 30.3 855 25.25 4.9 40.8 69 -0.3 31.4
04:05 1026 30.3 855 25.25 4.8 40.7 67 -0.7 30.8
04:10 1026 30.3 855 25.25 4.6 40.3 68 -0.7 30.7
04:15 1026 30.3 855 25.25 4.8 40.7 67 -0.8 30.5
04:20 1026 30.3 855 25.25 4.8 40.7 70 -0.3 31.5
04:25 1026 30.3 855 25.25 4.6 40.2 69 -0.6 30.9
04:30 1026 30.3 855 25.25 4.8 40.7 68 -0.5 31.1
04:35 1026 30.3 855 25.25 4.6 40.3 69 -0.6 30.8
04:40 1026 30.3 855 25.25 4.8 40.6 68 -0.6 30.9
04:45 1026 30.3 855 25.25 4.6 40.3 69 -0.6 31
04:50 1026 30.3 855 25.25 4.5 40.2 70 -0.5 31.1
04:55 1026 30.3 855 25.25 4.2 39.6 71 -0.5 31.1
05:00 1026 30.3 855 25.25 4.1 39.4 70 -1 30.3
05:05 1026 30.3 855 25.25 4.2 39.6 70 -0.7 30.7
05:10 1026 30.3 855 25.25 4.3 39.7 69 -0.9 30.4
05:15 1026 30.3 855 25.25 4.4 39.9 69 -0.8 30.6
05:20 1026 30.3 855 25.25 4.2 39.5 69 -1 30.2
05:25 1026 30.3 855 25.25 4.2 39.5 68 -1.1 30
05:30 1026 30.3 855 25.25 4.2 39.5 69 -1 30.2
05:35 1026 30.3 855 25.25 4 39.1 70 -1.1 30.1
05:40 1026 30.3 855 25.25 3.8 38.8 71 -1.1 30.1
05:45 1026 30.3 855 25.25 3.9 39 70 -1.1 30
05:50 1026 30.3 855 25.25 4 39.1 70 -1.1 30
05:55 1026 30.3 855 25.25 4.1 39.4 67 -1.4 29.5
06:00 1026 30.3 855 25.25 4.6 40.2 67 -1 30.2
06:05 1026 30.3 855 25.25 4.3 39.8 68 -1 30.3
06:10 1026 30.3 855 25.25 4.1 39.3 70 -0.9 30.3
06:15 1026 30.3 855 25.25 4 39.2 70 -1 30.3
06:20 1026 30.3 855 25.25 3.9 39.1 70 -1 30.2
06:25 1026 30.3 855 25.25 3.9 39.1 70 -1.1 30
06:30 1026 30.3 855 25.25 3.9 39.1 70 -1.1 30.1
06:35 1026 30.3 855 25.25 3.8 38.8 72 -0.9 30.4
06:40 1026 30.3 855 25.25 3.8 38.8 70 -1.1 30
06:45 1026 30.3 855 25.25 3.8 38.8 71 -1 30.1
06:50 1026 30.3 855 25.25 3.6 38.4 72 -1.1 30.1
06:55 1026 30.3 855 25.25 3.7 38.6 71 -1.2 29.9
07:00 1026 30.3 855 25.25 3.8 38.8 71 -1 30.1
07:05 1026 30.3 855 25.25 3.7 38.6 71 -1.1 30.1
07:10 1026 30.3 855 25.25 3.4 38.1 73 -1 30.2
07:15 1026 30.3 855 25.25 3.2 37.8 73 -1.2 29.9
07:20 1026 30.3 855 25.25 3.4 38.1 72 -1.2 29.9
07:25 1026 30.3 855 25.25 3.5 38.3 71 -1.2 29.9
07:30 1026 30.3 855 25.25 3.7 38.7 71 -1.1 30
07:35 1026 30.3 855 25.25 3.8 38.9 71 -1 30.2
07:40 1026 30.3 855 25.25 3.9 39.1 70 -1.1 30
07:45 1026 30.3 855 25.25 4.2 39.5 69 -0.9 30.3
07:50 1026 30.3 855 25.25 4.2 39.5 70 -0.9 30.4
07:55 1026 30.3 855 25.25 3.9 39 71 -0.8 30.5
08:00 1026 30.3 855 25.25 3.9 38.9 70 -1.2 29.9
08:05 1026 30.3 856 25.28 4.4 39.9 68 -0.9 30.4
08:10 1026 30.3 856 25.28 4.5 40.1 68 -0.8 30.5
08:15 1026 30.3 855 25.25 4.6 40.3 68 -0.8 30.5
08:20 1026 30.3 855 25.25 4.7 40.5 67 -1 30.3
08:25 1026 30.3 856 25.28 5 41.1 66 -0.9 30.5
08:30 1026 30.3 855 25.25 5.1 41.2 66 -0.6 30.8
08:35 1026 30.3 855 25.25 4.4 40 70 -0.5 31.1
08:40 1026 30.3 855 25.25 4.3 39.7 71 -0.6 30.9
08:45 1026 30.3 855 25.25 4.5 40.1 70 -0.5 31.1
08:50 1026 30.3 855 25.25 4.5 40.1 71 -0.3 31.4
08:55 1026 30.3 855 25.25 4.3 39.8 71 -0.5 31.2
09:00 1026 30.3 855 25.25 4.3 39.7 72 -0.3 31.4
09:05 1026 30.3 855 25.25 4.3 39.8 71 -0.4 31.3
09:10 1026 30.3 855 25.25 4.5 40.1 71 -0.3 31.5
09:15 1026 30.3 855 25.25 4.8 40.6 70 -0.3 31.4
09:20 1026 30.3 856 25.28 5.1 41.2 68 -0.2 31.6
09:25 1026 30.3 855 25.25 5.5 41.9 66 -0.3 31.4
09:30 1026 30.3 855 25.25 6.2 43.2 64 -0.1 31.8
09:35 1026 30.3 855 25.25 7.1 44.8 62 0.3 32.6
09:40 1026 30.3 855 25.25 7.2 44.9 64 0.8 33.5
09:45 1026 30.3 855 25.25 7.3 45.2 63 0.9 33.6
09:50 1026 30.3 856 25.28 7.5 45.6 62 0.8 33.4
09:55 1026 30.3 856 25.28 8.1 46.6 60 0.9 33.7
10:00 1026 30.3 855 25.25 8.8 47.9 58 1 33.7
10:05 1026 30.3 856 25.28 9.9 49.7 56 1.4 34.6
10:10 1026 30.3 855 25.25 10.1 50.2 54 1.3 34.3
10:15 1026 30.3 855 25.25 10.2 50.3 54 1.4 34.5
10:20 1026 30.3 855 25.25 10.3 50.5 53 1.1 34.1
10:25 1026 30.3 855 25.25 10.2 50.4 53 1 33.8
10:30 1026 30.3 855 25.25 10.6 51.1 54 1.7 35
10:35 1026 30.3 855 25.25 11.3 52.4 49 1.2 34.1
10:40 1026 30.3 855 25.25 11.7 53.1 49 1.4 34.5
10:45 1026 30.3 855 25.25 12.1 53.8 47 1.1 34
10:50 1026 30.3 855 25.25 12.2 53.9 47 1.3 34.3
10:55 1026 30.3 855 25.25 12.9 55.2 44 1.1 34
11:00 1026 30.3 855 25.25 13.1 55.6 46 1.9 35.5
11:05 1026 30.3 855 25.25 13.6 56.4 41 0.6 33.2
11:10 1026 30.3 855 25.25 13.4 56.2 41 0.4 32.6
11:15 1026 30.3 855 25.25 13 55.4 42 0.4 32.7
11:20 1026 30.3 855 25.25 13.6 56.5 39 -0 31.9
11:25 1025 30.27 855 25.25 13.6 56.4 41 0.5 33
11:30 1025 30.27 855 25.25 13.7 56.7 38 -0.3 31.4
11:35 1025 30.27 855 25.25 13.7 56.6 41 0.7 33.2
11:40 1025 30.27 854 25.22 13.5 56.3 38 -0.4 31.2
11:45 1025 30.27 854 25.22 13.9 57.1 38 -0.1 31.9
11:50 1025 30.27 854 25.22 13.9 57 38 -0.2 31.7
11:55 1025 30.27 854 25.22 14.4 58 37 -0.1 31.8
12:00 1025 30.27 854 25.22 14.3 57.7 37 -0.3 31.5
12:05 1025 30.27 854 25.22 15.3 59.6 34 -0.3 31.4
12:10 1025 30.27 854 25.22 15.8 60.4 36 0.7 33.2
12:15 1025 30.27 854 25.22 16.1 60.9 35 0.6 33
12:20 1025 30.27 854 25.22 15.3 59.5 40 1.7 35.1
12:25 1025 30.27 854 25.22 15 59 37 0.4 32.7
12:30 1025 30.27 854 25.22 15.7 60.3 35 0.6 33.1
12:35 1025 30.27 854 25.22 15.9 60.6 33 -0.2 31.7
12:40 1025 30.27 854 25.22 16.1 61 34 0.3 32.5
12:45 1025 30.27 854 25.22 16.6 61.8 32 0.1 32.1
12:50 1025 30.27 854 25.22 16.8 62.2 32 0.2 32.3
12:55 1025 30.27 854 25.22 16.5 61.7 32 -0.2 31.6
13:00 1025 30.27 854 25.22 16.7 62.1 32 -0 32
13:05 1025 30.27 854 25.22 16.9 62.4 32 0.4 32.7
13:10 1025 30.27 854 25.22 17 62.6 32 0.4 32.6
13:15 1025 30.27 854 25.22 17.3 63.1 31 0.1 32.3
13:20 1025 30.27 854 25.22 17.9 64.3 29 -0 32
13:25 1024 30.24 854 25.22 17.8 64 30 0.3 32.6
13:30 1024 30.24 854 25.22 17.8 64 30 0.3 32.5
13:35 1024 30.24 854 25.22 18 64.5 30 0.2 32.3
13:40 1024 30.24 854 25.22 17.9 64.2 31 0.5 32.9
13:45 1024 30.24 854 25.22 17.7 63.8 29 -0.3 31.4
13:50 1024 30.24 853 25.19 18.2 64.7 30 0.5 32.8
13:55 1024 30.24 853 25.19 18.5 65.2 29 0.1 32.2
14:00 1024 30.24 853 25.19 18.5 65.3 28 -0.1 31.8
14:05 1024 30.24 853 25.19 19.1 66.3 26 -0.5 31
14:10 1024 30.24 853 25.19 19.8 67.7 27 0.6 33.1
14:15 1024 30.24 853 25.19 19.9 67.7 26 -0.2 31.7
14:20 1024 30.24 853 25.19 18.7 65.6 29 0.5 32.8
14:25 1024 30.24 853 25.19 19 66.3 27 -0.3 31.5
14:30 1024 30.24 853 25.19 19.5 67.1 27 -0.1 31.9
14:35 1024 30.24 853 25.19 19.3 66.8 27 0.1 32.3
14:40 1024 30.24 853 25.19 20 67.9 27 0.4 32.8
14:45 1023 30.21 853 25.19 19.6 67.3 26 -0.3 31.5
14:50 1023 30.21 853 25.19 19.9 67.8 26 0 32.1
14:55 1023 30.21 852 25.16 19.9 67.7 25 -0.4 31.2
15:00 1023 30.21 852 25.16 19.7 67.5 27 0.2 32.3
15:05 1023 30.21 852 25.16 20.2 68.3 25 -0.2 31.7
15:10 1023 30.21 852 25.16 19 66.1 27 -0.4 31.3
15:15 1023 30.21 852 25.16 18.5 65.3 27 -0.9 30.3
15:20 1023 30.21 852 25.16 18.7 65.6 26 -0.8 30.5
15:25 1023 30.21 852 25.16 19.1 66.4 26 -0.5 31.1
15:30 1023 30.21 852 25.16 19.8 67.7 24 -1.1 30.1
15:35 1023 30.21 852 25.16 19.6 67.3 26 -0.3 31.5
15:40 1023 30.21 852 25.16 19.3 66.8 26 -0.6 31
15:45 1023 30.21 852 25.16 20.1 68.1 25 -0.6 31
15:50 1023 30.21 852 25.16 20.3 68.5 25 -0.2 31.6
15:55 1023 30.21 852 25.16 19.6 67.4 26 -0.2 31.7
16:00 1023 30.21 852 25.16 19.6 67.2 25 -0.7 30.8
16:05 1023 30.21 852 25.16 19.3 66.8 26 -0.4 31.2
16:10 1023 30.21 852 25.16 19.7 67.5 25 -0.6 30.8
16:15 1023 30.21 852 25.16 20.4 68.7 24 -0.6 31
16:20 1023 30.21 852 25.16 21 69.7 24 -0.4 31.2
16:25 1023 30.21 852 25.16 21 69.9 24 -0.4 31.3
16:30 1023 30.21 852 25.16 21.2 70.2 23 -0.4 31.3
16:35 1023 30.21 852 25.16 21.7 71.1 23 -0.2 31.6
16:40 1023 30.21 852 25.16 21.7 71 24 0.2 32.3
16:45 1022 30.18 852 25.16 21.4 70.6 24 -0 31.9
16:50 1022 30.18 852 25.16 20.8 69.5 24 -0.2 31.7
16:55 1022 30.18 852 25.16 20.2 68.4 25 -0.2 31.6
17:00 1022 30.18 852 25.16 20.8 69.4 24 -0.2 31.6
17:05 1022 30.18 852 25.16 20.3 68.5 26 0.2 32.4
17:10 1022 30.18 852 25.16 19.9 67.8 26 -0.2 31.7
17:15 1022 30.18 852 25.16 20.2 68.3 25 -0.1 31.9
17:20 1022 30.18 852 25.16 20 68 25 -0.3 31.5
17:25 1022 30.18 852 25.16 20.1 68.1 25 -0.3 31.5
17:30 1022 30.18 852 25.16 20.6 69.1 24 -0.4 31.2
17:35 1022 30.18 851 25.13 20.8 69.4 24 -0.1 31.8
17:40 1022 30.18 851 25.13 20 68 26 -0 31.9
17:45 1022 30.18 851 25.13 19.7 67.4 26 -0.2 31.6
17:50 1022 30.18 851 25.13 19.7 67.4 27 0.1 32.2
17:55 1022 30.18 851 25.13 19.3 66.7 27 0.1 32.1
18:00 1022 30.18 851 25.13 19 66.2 27 -0.3 31.5
18:05 1022 30.18 851 25.13 18.9 65.9 28 -0.1 31.9
18:10 1022 30.18 851 25.13 18.6 65.5 28 -0.2 31.7
18:15 1022 30.18 851 25.13 18.4 65.1 29 0.1 32.3
18:20 1022 30.18 851 25.13 18.1 64.6 32 1.1 34.1
18:25 1022 30.18 851 25.13 17.8 64.1 33 1.6 34.9
18:30 1022 30.18 851 25.13 17.6 63.7 34 1.6 34.8
18:35 1022 30.18 851 25.13 17.1 62.7 38 2.6 36.7
18:40 1022 30.18 851 25.13 16.4 61.6 39 2.4 36.4
18:45 1022 30.18 851 25.13 15.6 60 41 2.5 36.5
18:50 1022 30.18 851 25.13 14.9 58.7 44 3 37.3
18:55 1022 30.18 851 25.13 14.2 57.5 47 3.1 37.5
19:00 1022 30.18 851 25.13 13.7 56.6 48 3 37.4
19:05 1022 30.18 851 25.13 13.3 56 50 3.3 37.9
19:10 1022 30.18 851 25.13 12.9 55.3 52 3.3 37.9
19:15 1022 30.18 851 25.13 12.6 54.7 51 2.9 37.1
19:20 1022 30.18 851 25.13 12.6 54.7 50 2.6 36.7
19:25 1022 30.18 851 25.13 12.4 54.4 53 3.1 37.5
19:30 1022 30.18 851 25.13 12.2 54 52 2.7 36.9
19:35 1022 30.18 851 25.13 12.1 53.7 50 2.2 35.9
19:40 1022 30.18 851 25.13 12.2 54 51 2.4 36.4
19:45 1022 30.18 851 25.13 12.1 53.8 48 1.4 34.6
19:50 1022 30.18 851 25.13 12.2 54 49 2 35.6
19:55 1022 30.18 851 25.13 11.9 53.5 49 1.7 35.1
20:00 1022 30.18 851 25.13 12.1 53.7 47 1 33.8
20:05 1022 30.18 851 25.13 12.2 54 46 0.9 33.7
20:10 1022 30.18 851 25.13 12.3 54.1 44 0.3 32.6
20:15 1022 30.18 851 25.13 12.5 54.5 47 1.6 34.9
20:20 1022 30.18 851 25.13 12.3 54.2 44 0.5 32.9
20:25 1022 30.18 851 25.13 12.2 54 45 0.7 33.2
20:30 1022 30.18 851 25.13 12.3 54.2 44 0.5 32.9
20:35 1022 30.18 851 25.13 12.2 54 44 0.4 32.8
20:40 1022 30.18 851 25.13 12.1 53.8 45 0.5 33
20:45 1022 30.18 851 25.13 11.8 53.3 45 0.2 32.3
20:50 1022 30.18 851 25.13 11.9 53.3 45 0.2 32.4
20:55 1022 30.18 851 25.13 11.8 53.3 44 -0.1 31.8
21:00 1022 30.18 851 25.13 11.9 53.4 43 -0.1 31.9
21:05 1022 30.18 851 25.13 11.7 53.1 44 0 32
21:10 1022 30.18 851 25.13 11.7 53.1 45 0.1 32.1
21:15 1022 30.18 851 25.13 11.5 52.7 45 0.1 32.2
21:20 1022 30.18 851 25.13 11.7 53 45 0 32.1
21:25 1022 30.18 851 25.13 11.5 52.8 45 0.1 32.1
21:30 1022 30.18 851 25.13 11.3 52.4 46 0 32.1
21:35 1022 30.18 851 25.13 11.1 52.1 46 -0 31.9
21:40 1022 30.18 851 25.13 11 51.8 45 -0.3 31.4
21:45 1022 30.18 851 25.13 11.1 52 45 -0.3 31.5
21:50 1022 30.18 851 25.13 11.1 52 45 -0.3 31.4
21:55 1022 30.18 851 25.13 11.1 51.9 46 -0.2 31.7
22:00 1022 30.18 851 25.13 11.1 51.9 46 -0.1 31.7
22:05 1022 30.18 851 25.13 10.8 51.5 47 0 32.1
22:10 1022 30.18 851 25.13 10.6 51.1 48 0.1 32.1
22:15 1022 30.18 851 25.13 10.5 50.9 49 0.1 32.3
22:20 1022 30.18 851 25.13 10.6 51.1 48 0.2 32.3
22:25 1022 30.18 851 25.13 10.5 51 49 0.4 32.7
22:30 1022 30.18 851 25.13 10.5 50.9 49 0.3 32.6
22:35 1022 30.18 851 25.13 10.3 50.6 50 0.4 32.7
22:40 1022 30.18 851 25.13 10.1 50.1 49 -0.1 31.9
22:45 1022 30.18 851 25.13 10.2 50.4 49 -0 32
22:50 1022 30.18 851 25.13 10.1 50.2 49 0 32.1
22:55 1022 30.18 851 25.13 10.2 50.3 48 -0.2 31.6
23:00 1022 30.18 851 25.13 10.4 50.6 48 -0.1 31.9
23:05 1022 30.18 851 25.13 10.1 50.2 49 -0 32
23:10 1022 30.18 851 25.13 9.9 49.9 50 -0.1 31.9
23:15 1022 30.18 851 25.13 9.8 49.7 50 -0 31.9
23:20 1022 30.18 851 25.13 10 50 49 -0.1 31.7
23:25 1022 30.18 851 25.13 10.3 50.6 49 0 32
23:30 1022 30.18 851 25.13 10.1 50.2 49 -0.1 31.8
23:35 1022 30.18 851 25.13 9.7 49.5 51 -0 31.9
23:40 1022 30.18 851 25.13 9.3 48.7 52 -0 32
23:45 1022 30.18 851 25.13 9.2 48.5 52 -0.2 31.6
23:50 1022 30.18 851 25.13 9.1 48.4 53 -0 31.9
23:55 1021 30.15 851 25.13 9.1 48.3 53 -0.1 31.9
24:00 1021 30.15 851 25.13 9.4 49 51 -0.1 31.9